createdAt,value
2024-03-07T00:00:16.251Z,67.63
2024-03-07T00:02:46.613Z,64.53
2024-03-07T00:05:17.128Z,75.68
2024-03-07T00:07:44.287Z,67.47
2024-03-07T00:10:11.456Z,78.70
2024-03-07T00:12:42.177Z,79.00
2024-03-07T00:15:11.834Z,67.07
2024-03-07T00:17:39.929Z,62.58
2024-03-07T00:20:10.652Z,74.05
2024-03-07T00:22:37.593Z,67.82
2024-03-07T00:25:08.057Z,73.25
2024-03-07T00:27:34.696Z,72.40
2024-03-07T00:30:01.477Z,64.97
2024-03-07T00:32:31.147Z,62.88
2024-03-07T00:35:00.525Z,68.25
2024-03-07T00:37:27.141Z,68.15
2024-03-07T00:39:53.733Z,72.05
2024-03-07T00:42:20.531Z,65.72
2024-03-07T00:44:47.885Z,68.63
2024-03-07T00:47:14.503Z,64.65
2024-03-07T00:49:41.333Z,68.07
2024-03-07T00:52:07.986Z,73.72
2024-03-07T00:54:34.964Z,64.57
2024-03-07T00:57:01.590Z,67.40
2024-03-07T00:59:28.204Z,80.35
2024-03-07T01:01:55.013Z,79.10
2024-03-07T01:04:21.665Z,73.95
2024-03-07T01:06:48.559Z,69.00
2024-03-07T01:09:15.957Z,70.93
2024-03-07T01:11:45.296Z,75.68
2024-03-07T01:14:12.812Z,79.28
2024-03-07T01:16:39.437Z,85.10
2024-03-07T01:19:07.290Z,72.22
2024-03-07T01:21:38.022Z,75.70
2024-03-07T01:24:06.109Z,81.88
2024-03-07T01:26:34.930Z,73.18
2024-03-07T01:29:01.691Z,72.28
2024-03-07T01:31:28.979Z,76.75
2024-03-07T01:33:56.012Z,72.82
2024-03-07T01:36:22.966Z,75.40
2024-03-07T01:38:49.974Z,63.45
2024-03-07T01:41:16.876Z,69.60
2024-03-07T01:43:44.475Z,59.42
2024-03-07T01:46:13.842Z,58.20
2024-03-07T01:48:41.646Z,56.05
2024-03-07T01:51:09.886Z,61.50
2024-03-07T01:53:37.184Z,60.72
2024-03-07T01:56:05.210Z,66.63
2024-03-07T01:58:35.073Z,56.20
2024-03-07T02:01:02.039Z,54.13
2024-03-07T02:03:29.208Z,61.78
2024-03-07T02:05:57.115Z,62.88
2024-03-07T02:08:23.780Z,60.85
2024-03-07T02:10:50.720Z,58.07
2024-03-07T02:13:17.639Z,53.50
2024-03-07T02:15:44.740Z,53.03
2024-03-07T02:18:11.979Z,59.67
2024-03-07T02:20:39.208Z,58.10
2024-03-07T02:23:05.913Z,59.03
2024-03-07T02:25:33.393Z,49.17
2024-03-07T02:28:00.211Z,58.25
2024-03-07T02:30:26.872Z,54.78
2024-03-07T02:32:56.589Z,75.57
2024-03-07T02:35:24.688Z,68.30
2024-03-07T02:37:51.753Z,81.57
2024-03-07T02:40:18.501Z,90.20
2024-03-07T02:42:45.148Z,80.10
2024-03-07T02:45:16.372Z,89.18
2024-03-07T02:47:45.324Z,84.68
2024-03-07T02:50:12.612Z,96.63
2024-03-07T02:52:40.228Z,99.35
2024-03-07T02:55:07.348Z,92.80
2024-03-07T02:57:33.962Z,92.65
2024-03-07T03:00:00.863Z,87.28
2024-03-07T03:02:27.487Z,92.72
2024-03-07T03:04:55.709Z,94.13
2024-03-07T03:07:22.387Z,74.50
2024-03-07T03:09:50.109Z,94.20
2024-03-07T03:12:17.198Z,93.07
2024-03-07T03:14:44.607Z,85.95
2024-03-07T03:17:12.393Z,97.28
2024-03-07T03:19:39.228Z,88.30
2024-03-07T03:22:06.106Z,90.60
2024-03-07T03:24:32.734Z,95.85
2024-03-07T03:26:59.466Z,89.57
2024-03-07T03:29:26.309Z,89.72
2024-03-07T03:31:53.047Z,75.97
2024-03-07T03:34:19.744Z,98.88
2024-03-07T03:36:46.332Z,81.93
2024-03-07T03:39:14.627Z,80.35
2024-03-07T03:41:41.664Z,85.45
2024-03-07T03:44:08.900Z,86.47
2024-03-07T03:46:35.640Z,90.47
2024-03-07T03:49:02.415Z,95.23
2024-03-07T03:51:29.328Z,105.68
2024-03-07T03:53:55.984Z,99.10
2024-03-07T03:56:22.974Z,85.18
2024-03-07T03:58:49.811Z,94.90
2024-03-07T04:01:17.543Z,97.83
2024-03-07T04:03:47.828Z,77.80
2024-03-07T04:06:15.158Z,105.07
2024-03-07T04:08:41.946Z,84.03
2024-03-07T04:11:11.631Z,77.53
2024-03-07T04:13:39.381Z,91.93
2024-03-07T04:16:06.258Z,90.05
2024-03-07T04:18:33.636Z,95.15
2024-03-07T04:21:00.543Z,98.75
2024-03-07T04:23:27.432Z,90.95
2024-03-07T04:25:54.323Z,96.35
2024-03-07T04:28:21.747Z,93.57
2024-03-07T04:30:50.507Z,84.05
2024-03-07T04:33:17.330Z,91.40
2024-03-07T04:35:44.143Z,95.75
2024-03-07T04:38:12.736Z,87.25
2024-03-07T04:40:40.299Z,91.65
2024-03-07T04:43:07.035Z,97.47
2024-03-07T04:45:33.665Z,97.07
2024-03-07T04:48:00.646Z,94.30
2024-03-07T04:50:27.758Z,99.73
2024-03-07T04:52:54.584Z,89.43
2024-03-07T04:55:21.157Z,72.85
2024-03-07T04:57:48.289Z,89.82
2024-03-07T05:00:17.749Z,83.60
2024-03-07T05:02:47.750Z,84.68
2024-03-07T05:05:15.331Z,83.70
2024-03-07T05:07:42.831Z,83.80
2024-03-07T05:10:10.137Z,87.25
2024-03-07T05:12:38.158Z,86.95
2024-03-07T05:15:11.391Z,78.10
2024-03-07T05:17:40.329Z,85.00
2024-03-07T05:20:11.373Z,75.15
2024-03-07T05:22:42.940Z,81.78
2024-03-07T05:25:10.575Z,76.55
2024-03-07T05:27:37.458Z,82.50
2024-03-07T05:30:10.067Z,66.15
2024-03-07T05:32:37.420Z,75.90
2024-03-07T05:35:04.879Z,86.03
2024-03-07T05:37:32.898Z,78.10
2024-03-07T05:40:00.871Z,64.03
2024-03-07T05:42:27.586Z,60.33
2024-03-07T05:44:55.423Z,71.47
2024-03-07T05:47:23.274Z,75.10
2024-03-07T05:49:50.099Z,74.82
2024-03-07T05:52:17.060Z,86.77
2024-03-07T05:54:45.213Z,81.65
2024-03-07T05:57:12.904Z,78.95
2024-03-07T05:59:40.175Z,72.85
2024-03-07T06:02:07.096Z,71.38
2024-03-07T06:04:35.153Z,80.68
2024-03-07T06:07:02.161Z,77.82
2024-03-07T06:09:29.278Z,77.13
2024-03-07T06:11:56.138Z,67.22
2024-03-07T06:14:24.534Z,74.40
2024-03-07T06:16:53.245Z,73.35
2024-03-07T06:19:19.998Z,76.10
2024-03-07T06:21:47.317Z,68.88
2024-03-07T06:24:16.594Z,78.22
2024-03-07T06:26:46.935Z,72.43
2024-03-07T06:29:17.407Z,86.85
2024-03-07T06:31:47.387Z,71.72
2024-03-07T06:34:14.321Z,78.88
2024-03-07T06:36:44.128Z,72.10
2024-03-07T06:39:11.829Z,79.43
2024-03-07T06:41:39.317Z,67.45
2024-03-07T06:44:06.167Z,77.82
2024-03-07T06:46:34.792Z,82.78
2024-03-07T06:49:01.958Z,74.72
2024-03-07T06:51:28.913Z,71.97
2024-03-07T06:53:57.547Z,76.97
2024-03-07T06:56:25.982Z,63.05
2024-03-07T06:58:52.803Z,71.93
2024-03-07T07:01:20.860Z,64.68
2024-03-07T07:03:49.183Z,59.75
2024-03-07T07:06:16.682Z,63.53
2024-03-07T07:08:43.537Z,67.38
2024-03-07T07:11:13.075Z,61.53
2024-03-07T07:13:40.135Z,46.22
2024-03-07T07:16:07.090Z,59.15
2024-03-07T07:18:33.804Z,52.50
2024-03-07T07:21:00.895Z,54.65
2024-03-07T07:23:28.046Z,60.80
2024-03-07T07:25:54.638Z,81.45
2024-03-07T07:28:21.250Z,70.20
2024-03-07T07:30:47.826Z,51.33
2024-03-07T07:33:15.408Z,59.90
2024-03-07T07:35:42.618Z,60.95
2024-03-07T07:38:11.806Z,55.50
2024-03-07T07:40:39.063Z,58.20
2024-03-07T07:43:05.959Z,61.30
2024-03-07T07:45:34.206Z,64.07
2024-03-07T07:48:01.219Z,51.15
2024-03-07T07:50:29.182Z,50.28
2024-03-07T07:53:00.010Z,45.35
2024-03-07T07:55:30.402Z,60.67
2024-03-07T07:58:01.255Z,62.58
2024-03-07T08:00:32.946Z,57.47
2024-03-07T08:03:05.055Z,58.08
2024-03-07T08:05:34.189Z,57.45
2024-03-07T08:08:07.333Z,67.35
2024-03-07T08:10:35.914Z,54.35
2024-03-07T08:13:04.390Z,61.55
2024-03-07T08:15:32.227Z,48.08
2024-03-07T08:18:00.418Z,57.10
2024-03-07T08:20:28.559Z,47.88
2024-03-07T08:22:56.980Z,45.80
2024-03-07T08:25:26.076Z,52.08
2024-03-07T08:27:55.238Z,41.92
2024-03-07T08:30:22.031Z,59.50
2024-03-07T08:32:53.107Z,67.78
2024-03-07T08:35:20.469Z,55.25
2024-03-07T08:37:54.967Z,57.67
2024-03-07T08:40:27.393Z,65.72
2024-03-07T08:42:55.694Z,60.25
2024-03-07T08:45:22.331Z,50.92
2024-03-07T08:47:50.800Z,34.97
2024-03-07T08:50:21.563Z,42.50
2024-03-07T08:52:49.449Z,45.22
2024-03-07T08:55:17.976Z,50.72
2024-03-07T08:57:47.145Z,45.30
2024-03-07T09:00:23.980Z,34.45
2024-03-07T09:02:56.128Z,43.58
2024-03-07T09:05:24.940Z,51.65
2024-03-07T09:07:53.729Z,49.00
2024-03-07T09:10:21.839Z,36.80
2024-03-07T09:12:52.948Z,33.03
2024-03-07T09:15:22.771Z,43.00
2024-03-07T09:17:50.027Z,50.80
2024-03-07T09:20:17.119Z,48.65
2024-03-07T09:22:48.756Z,50.30
2024-03-07T09:25:17.669Z,30.77
2024-03-07T09:27:44.552Z,40.70
2024-03-07T09:30:20.234Z,42.55
2024-03-07T09:32:47.232Z,42.78
2024-03-07T09:35:15.090Z,39.92
2024-03-07T09:37:42.731Z,42.63
2024-03-07T09:40:11.297Z,45.50
2024-03-07T09:42:50.174Z,36.80
2024-03-07T09:45:19.767Z,37.88
2024-03-07T09:47:49.738Z,34.80
2024-03-07T09:50:23.571Z,35.37
2024-03-07T09:52:53.871Z,32.75
2024-03-07T09:55:22.921Z,31.92
2024-03-07T09:57:51.539Z,31.25
2024-03-07T10:00:27.888Z,42.47
2024-03-07T10:03:03.303Z,37.73
2024-03-07T10:05:32.119Z,38.38
2024-03-07T10:08:00.334Z,32.70
2024-03-07T10:10:27.432Z,36.60
2024-03-07T10:12:59.677Z,36.25
2024-03-07T10:15:34.146Z,37.07
2024-03-07T10:18:02.699Z,29.50
2024-03-07T10:20:29.964Z,26.08
2024-03-07T10:22:58.008Z,26.83
2024-03-07T10:25:29.956Z,26.20
2024-03-07T10:27:58.945Z,27.80
2024-03-07T10:30:26.547Z,25.95
2024-03-07T10:32:56.624Z,26.67
2024-03-07T10:35:26.269Z,29.42
2024-03-07T10:37:56.963Z,28.02
2024-03-07T10:40:28.235Z,23.87
2024-03-07T10:42:59.636Z,20.73
2024-03-07T10:45:30.336Z,26.05
2024-03-07T10:47:58.784Z,25.80
2024-03-07T10:50:44.208Z,24.33
2024-03-07T10:53:27.073Z,21.30
2024-03-07T10:56:19.452Z,27.13
2024-03-07T10:58:54.523Z,21.83
2024-03-07T11:01:21.910Z,23.58
2024-03-07T11:03:53.383Z,25.30
2024-03-07T11:06:21.503Z,29.07
2024-03-07T11:08:48.780Z,27.45
2024-03-07T11:11:15.618Z,24.98
2024-03-07T11:13:43.239Z,27.60
2024-03-07T11:16:11.209Z,19.60
2024-03-07T11:18:37.946Z,25.93
2024-03-07T11:21:09.000Z,21.83
2024-03-07T11:23:42.487Z,24.77
2024-03-07T11:26:11.492Z,27.88
2024-03-07T11:28:40.210Z,24.35
2024-03-07T11:31:10.476Z,21.70
2024-03-07T11:33:41.645Z,22.85
2024-03-07T11:36:15.111Z,26.23
2024-03-07T11:38:51.545Z,23.33
2024-03-07T11:41:20.414Z,22.50
2024-03-07T11:43:47.903Z,24.47
2024-03-07T11:46:18.444Z,20.65
2024-03-07T11:48:45.676Z,26.38
2024-03-07T11:51:18.730Z,25.90
2024-03-07T11:53:49.109Z,23.90
2024-03-07T11:56:17.644Z,25.03
2024-03-07T11:58:45.852Z,20.05
2024-03-07T12:01:15.314Z,25.45
2024-03-07T12:03:42.381Z,24.70
2024-03-07T12:06:13.847Z,26.70
2024-03-07T12:08:43.297Z,22.83
2024-03-07T12:11:14.108Z,20.30
2024-03-07T12:13:41.989Z,20.80
2024-03-07T12:16:09.533Z,18.50
2024-03-07T12:18:37.651Z,21.45
2024-03-07T12:21:08.041Z,24.33
2024-03-07T12:23:35.000Z,16.00
2024-03-07T12:26:03.299Z,24.52
2024-03-07T12:28:34.570Z,22.73
2024-03-07T12:31:03.606Z,20.48
2024-03-07T12:33:32.806Z,22.10
2024-03-07T12:36:11.556Z,20.70
2024-03-07T12:38:39.774Z,21.58
2024-03-07T12:41:15.324Z,21.73
2024-03-07T12:43:43.667Z,24.20
2024-03-07T12:46:14.894Z,21.57
2024-03-07T12:48:42.082Z,25.20
2024-03-07T12:51:10.772Z,21.20
2024-03-07T12:53:38.431Z,23.80
2024-03-07T12:56:05.270Z,20.10
2024-03-07T12:58:32.090Z,21.40
2024-03-07T13:00:59.331Z,20.10
2024-03-07T13:03:32.970Z,20.77
2024-03-07T13:06:03.515Z,24.52
2024-03-07T13:08:33.168Z,22.50
2024-03-07T13:11:01.049Z,19.97
2024-03-07T13:13:28.483Z,29.75
2024-03-07T13:15:56.261Z,21.90
2024-03-07T13:18:23.440Z,20.75
2024-03-07T13:20:50.734Z,22.48
2024-03-07T13:23:17.330Z,22.47
2024-03-07T13:25:45.332Z,25.30
2024-03-07T13:28:25.407Z,24.10
2024-03-07T13:30:55.593Z,22.90
2024-03-07T13:33:22.419Z,21.75
2024-03-07T13:35:49.646Z,19.93
2024-03-07T13:38:16.830Z,24.35
2024-03-07T13:40:43.586Z,19.80
2024-03-07T13:43:10.304Z,22.33
2024-03-07T13:45:42.222Z,17.10
2024-03-07T13:48:11.722Z,21.23
2024-03-07T13:50:57.119Z,19.65
2024-03-07T13:53:29.439Z,22.55
2024-03-07T13:56:14.963Z,23.73
2024-03-07T13:58:56.681Z,20.83
2024-03-07T14:01:39.826Z,19.40
2024-03-07T14:04:21.310Z,20.13
2024-03-07T14:06:49.500Z,19.38
2024-03-07T14:09:31.070Z,22.88
2024-03-07T14:12:39.212Z,28.00
2024-03-07T14:15:26.076Z,22.63
2024-03-07T14:18:41.297Z,21.80
2024-03-07T14:21:36.367Z,26.08
2024-03-07T14:24:41.564Z,28.50
2024-03-07T14:27:11.144Z,28.75
2024-03-07T14:30:27.433Z,24.83
2024-03-07T14:32:59.949Z,27.50
2024-03-07T14:35:34.901Z,26.10
2024-03-07T14:38:26.617Z,25.25
2024-03-07T14:40:53.680Z,25.70
2024-03-07T14:43:21.480Z,24.93
2024-03-07T14:45:48.231Z,27.27
2024-03-07T14:48:19.101Z,23.60
2024-03-07T14:50:48.337Z,26.10
2024-03-07T14:53:18.877Z,26.85
2024-03-07T14:55:45.969Z,28.33
2024-03-07T14:58:13.883Z,26.67
2024-03-07T15:00:49.671Z,26.88
2024-03-07T15:03:23.615Z,25.17
2024-03-07T15:05:50.364Z,27.55
2024-03-07T15:08:17.709Z,32.80
2024-03-07T15:10:55.869Z,31.67
2024-03-07T15:13:22.794Z,28.98
2024-03-07T15:15:49.466Z,33.25
2024-03-07T15:18:16.412Z,24.65
2024-03-07T15:20:43.561Z,27.63
2024-03-07T15:23:10.186Z,29.02
2024-03-07T15:25:37.909Z,30.00
2024-03-07T15:28:04.979Z,30.88
2024-03-07T15:30:37.647Z,26.20
2024-03-07T15:33:05.975Z,24.73
2024-03-07T15:35:34.309Z,26.88
2024-03-07T15:38:01.503Z,27.55
2024-03-07T15:40:28.949Z,25.90
2024-03-07T15:43:02.688Z,28.27
2024-03-07T15:45:30.564Z,26.55
2024-03-07T15:48:00.009Z,24.73
2024-03-07T15:50:30.915Z,22.65
2024-03-07T15:53:01.195Z,19.70
2024-03-07T15:55:29.743Z,23.50
2024-03-07T15:57:57.626Z,22.00
2024-03-07T16:00:26.411Z,25.02
2024-03-07T16:03:00.762Z,29.48
2024-03-07T16:05:29.822Z,26.58
2024-03-07T16:07:57.824Z,19.50
2024-03-07T16:10:27.820Z,19.07
2024-03-07T16:12:55.040Z,24.58
2024-03-07T16:15:35.563Z,21.13
2024-03-07T16:18:09.606Z,22.10
2024-03-07T16:20:36.942Z,20.60
2024-03-07T16:23:07.154Z,17.42
2024-03-07T16:25:39.142Z,26.33
2024-03-07T16:28:07.828Z,27.98
2024-03-07T16:30:35.112Z,25.75
2024-03-07T16:33:02.097Z,25.02
2024-03-07T16:35:34.087Z,22.15
2024-03-07T16:38:01.372Z,24.55
2024-03-07T16:40:29.868Z,24.25
2024-03-07T16:43:02.137Z,21.60
2024-03-07T16:45:30.894Z,23.65
2024-03-07T16:48:02.169Z,20.52
2024-03-07T16:50:33.377Z,22.33
2024-03-07T16:53:06.766Z,28.27
2024-03-07T16:55:40.434Z,20.42
2024-03-07T16:58:14.573Z,20.55
2024-03-07T17:00:43.958Z,25.83
2024-03-07T17:03:13.361Z,24.33
2024-03-07T17:05:42.647Z,25.15
2024-03-07T17:08:15.484Z,21.27
2024-03-07T17:10:44.776Z,22.45
2024-03-07T17:13:13.620Z,26.27
2024-03-07T17:15:41.254Z,21.40
2024-03-07T17:18:11.659Z,26.90
2024-03-07T17:20:40.159Z,26.13
2024-03-07T17:23:07.116Z,24.63
2024-03-07T17:25:34.294Z,13.75
2024-03-07T17:28:01.610Z,31.38
2024-03-07T17:30:32.871Z,26.30
2024-03-07T17:33:00.933Z,28.75
2024-03-07T17:35:30.171Z,19.73
2024-03-07T17:37:58.097Z,21.25
2024-03-07T17:40:28.476Z,30.95
2024-03-07T17:42:56.468Z,22.08
2024-03-07T17:45:29.231Z,24.55
2024-03-07T17:47:58.917Z,20.67
2024-03-07T17:50:27.626Z,20.48
2024-03-07T17:53:02.038Z,24.45
2024-03-07T17:55:33.434Z,24.63
2024-03-07T17:58:02.875Z,24.63
2024-03-07T18:00:30.112Z,24.98
2024-03-07T18:02:59.395Z,24.60
2024-03-07T18:05:37.942Z,29.40
2024-03-07T18:08:22.407Z,21.02
2024-03-07T18:10:57.551Z,28.85
2024-03-07T18:13:24.626Z,24.67
2024-03-07T18:15:51.357Z,22.55
2024-03-07T18:18:18.756Z,23.00
2024-03-07T18:20:46.970Z,22.98
2024-03-07T18:23:14.567Z,27.98
2024-03-07T18:25:42.499Z,23.23
2024-03-07T18:28:10.132Z,27.02
2024-03-07T18:30:36.883Z,30.88
2024-03-07T18:33:05.928Z,25.42
2024-03-07T18:35:37.938Z,23.42
2024-03-07T18:38:07.831Z,27.07
2024-03-07T18:40:37.560Z,30.13
2024-03-07T18:43:13.413Z,27.23
2024-03-07T18:45:45.679Z,35.95
2024-03-07T18:48:13.963Z,31.67
2024-03-07T18:50:48.961Z,28.97
2024-03-07T18:53:20.729Z,31.73
2024-03-07T18:55:49.861Z,27.88
2024-03-07T18:58:18.300Z,27.10
2024-03-07T19:00:45.699Z,33.58
2024-03-07T19:03:16.394Z,41.67
2024-03-07T19:05:47.102Z,33.63
2024-03-07T19:08:21.450Z,25.98
2024-03-07T19:10:49.660Z,33.20
2024-03-07T19:13:18.421Z,28.60
2024-03-07T19:15:45.763Z,33.10
2024-03-07T19:18:15.520Z,28.92
2024-03-07T19:20:48.933Z,28.83
2024-03-07T19:23:18.512Z,29.20
2024-03-07T19:25:46.142Z,24.38
2024-03-07T19:28:16.123Z,19.20
2024-03-07T19:30:51.538Z,28.55
2024-03-07T19:33:19.898Z,31.35
2024-03-07T19:35:49.294Z,24.88
2024-03-07T19:38:16.535Z,23.90
2024-03-07T19:40:43.667Z,31.67
2024-03-07T19:43:11.031Z,23.83
2024-03-07T19:45:42.173Z,28.15
2024-03-07T19:48:13.495Z,33.05
2024-03-07T19:50:43.146Z,23.77
2024-03-07T19:53:16.397Z,24.13
2024-03-07T19:55:46.120Z,30.63
2024-03-07T19:58:14.285Z,28.10
2024-03-07T20:00:45.870Z,21.80
2024-03-07T20:03:21.504Z,25.20
2024-03-07T20:05:54.040Z,23.23
2024-03-07T20:08:22.474Z,26.08
2024-03-07T20:10:51.087Z,27.75
2024-03-07T20:13:19.384Z,26.08
2024-03-07T20:15:46.494Z,28.40
2024-03-07T20:18:14.267Z,29.73
2024-03-07T20:20:45.284Z,30.13
2024-03-07T20:23:14.929Z,29.42
2024-03-07T20:25:42.990Z,27.35
2024-03-07T20:28:09.914Z,27.98
2024-03-07T20:30:36.928Z,28.67
2024-03-07T20:33:04.579Z,31.92
2024-03-07T20:35:32.697Z,27.50
2024-03-07T20:38:02.917Z,27.23
2024-03-07T20:40:29.862Z,38.40
2024-03-07T20:42:58.996Z,22.83
2024-03-07T20:45:25.799Z,27.95
2024-03-07T20:47:52.718Z,27.80
2024-03-07T20:50:28.872Z,26.90
2024-03-07T20:52:55.465Z,22.60
2024-03-07T20:55:28.340Z,25.00
2024-03-07T20:57:57.279Z,25.95
2024-03-07T21:00:25.446Z,30.67
2024-03-07T21:02:54.042Z,25.17
2024-03-07T21:05:21.756Z,30.20
2024-03-07T21:07:50.256Z,25.97
2024-03-07T21:10:20.808Z,26.20
2024-03-07T21:12:48.582Z,25.95
2024-03-07T21:15:16.561Z,26.33
2024-03-07T21:17:43.618Z,27.48
2024-03-07T21:20:14.543Z,27.50
2024-03-07T21:22:42.559Z,27.23
2024-03-07T21:25:14.016Z,28.27
2024-03-07T21:27:41.979Z,21.27
2024-03-07T21:30:10.764Z,26.70
2024-03-07T21:32:40.571Z,20.90
2024-03-07T21:35:12.799Z,22.75
2024-03-07T21:37:41.987Z,25.10
2024-03-07T21:40:09.534Z,19.52
2024-03-07T21:42:36.161Z,26.42
2024-03-07T21:45:02.987Z,26.30
2024-03-07T21:47:29.673Z,22.63
2024-03-07T21:49:59.286Z,22.48
2024-03-07T21:52:26.486Z,23.48
2024-03-07T21:54:53.093Z,28.85
2024-03-07T21:57:19.735Z,28.67
2024-03-07T21:59:46.369Z,30.40
2024-03-07T22:02:16.184Z,30.33
2024-03-07T22:07:16.151Z,29.63
2024-03-07T22:09:45.567Z,30.90
2024-03-07T22:12:12.307Z,22.25
2024-03-07T22:14:40.843Z,27.13
2024-03-07T22:17:07.892Z,35.85
2024-03-07T22:19:37.773Z,25.13
2024-03-07T22:22:07.437Z,27.58
2024-03-07T22:24:34.109Z,34.78
2024-03-07T22:27:01.482Z,29.58
2024-03-07T22:29:28.356Z,30.92
2024-03-07T22:31:55.041Z,28.10
2024-03-07T22:34:21.630Z,25.02
2024-03-07T22:36:51.498Z,32.75
2024-03-07T22:39:20.640Z,26.20
2024-03-07T22:41:47.673Z,42.50
2024-03-07T22:44:14.693Z,37.22
2024-03-07T22:46:41.601Z,39.30
2024-03-07T22:49:08.893Z,28.98
2024-03-07T22:51:35.621Z,34.13
2024-03-07T22:54:02.409Z,33.15
2024-03-07T22:56:29.042Z,31.95
2024-03-07T22:58:59.879Z,33.75
2024-03-07T23:01:33.244Z,31.70
2024-03-07T23:04:01.127Z,30.92
2024-03-07T23:06:32.903Z,39.50
2024-03-07T23:09:00.264Z,37.88
2024-03-07T23:11:26.981Z,38.88
2024-03-07T23:13:53.632Z,42.25
2024-03-07T23:16:20.230Z,30.92
2024-03-07T23:18:48.110Z,39.03
2024-03-07T23:21:14.946Z,38.35
2024-03-07T23:23:42.768Z,44.88
2024-03-07T23:26:09.951Z,44.78
2024-03-07T23:28:37.163Z,37.90
2024-03-07T23:31:05.181Z,36.13
2024-03-07T23:33:31.980Z,39.63
2024-03-07T23:35:58.599Z,30.20
2024-03-07T23:38:25.395Z,43.47
2024-03-07T23:40:52.100Z,36.20
2024-03-07T23:43:21.184Z,50.28
2024-03-07T23:45:48.651Z,41.80
2024-03-07T23:48:15.404Z,37.67
2024-03-07T23:50:42.714Z,37.15
2024-03-07T23:53:09.397Z,32.13
2024-03-07T23:55:37.251Z,32.90
2024-03-07T23:58:03.989Z,38.38
